createdAt,value
2018-03-03T00:01:29.742Z,36.42
2018-03-03T00:03:56.956Z,36.55
2018-03-03T00:06:23.923Z,33.83
2018-03-03T00:08:50.152Z,36.50
2018-03-03T00:11:16.351Z,38.05
2018-03-03T00:13:42.574Z,40.10
2018-03-03T00:16:08.782Z,36.45
2018-03-03T00:18:35.014Z,38.90
2018-03-03T00:21:01.342Z,36.67
2018-03-03T00:23:27.612Z,38.28
2018-03-03T00:25:53.801Z,39.05
2018-03-03T00:28:20.020Z,34.70
2018-03-03T00:30:46.282Z,34.80
2018-03-03T00:33:14.429Z,36.92
2018-03-03T00:35:41.914Z,34.78
2018-03-03T00:38:09.289Z,35.08
2018-03-03T00:40:35.569Z,35.75
2018-03-03T00:43:02.029Z,35.45
2018-03-03T00:45:29.006Z,37.92
2018-03-03T00:47:55.231Z,39.72
2018-03-03T00:50:22.453Z,38.20
2018-03-03T00:52:49.939Z,40.38
2018-03-03T00:55:16.180Z,38.97
2018-03-03T00:57:42.907Z,36.03
2018-03-03T01:00:09.768Z,38.70
2018-03-03T01:02:35.969Z,41.90
2018-03-03T01:05:02.202Z,37.20
2018-03-03T01:07:28.679Z,36.13
2018-03-03T01:09:56.662Z,39.20
2018-03-03T01:12:22.883Z,37.95
2018-03-03T01:14:49.378Z,41.25
2018-03-03T01:17:16.134Z,36.50
2018-03-03T01:19:42.451Z,38.70
2018-03-03T01:22:09.365Z,37.60
2018-03-03T01:24:36.725Z,35.20
2018-03-03T01:27:03.823Z,35.92
2018-03-03T01:29:30.066Z,40.33
2018-03-03T01:31:57.257Z,37.85
2018-03-03T01:34:23.504Z,38.50
2018-03-03T01:36:49.736Z,40.85
2018-03-03T01:39:16.491Z,40.03
2018-03-03T01:41:43.682Z,45.10
2018-03-03T01:44:10.891Z,43.13
2018-03-03T01:46:37.183Z,40.55
2018-03-03T01:49:03.831Z,39.83
2018-03-03T01:51:40.995Z,39.45
2018-03-03T01:54:07.887Z,43.22
2018-03-03T01:56:34.452Z,38.38
2018-03-03T01:59:01.928Z,38.50
2018-03-03T02:01:28.522Z,41.20
2018-03-03T02:03:54.746Z,41.00
2018-03-03T02:06:21.364Z,39.95
2018-03-03T02:08:48.500Z,36.28
2018-03-03T02:11:15.198Z,37.55
2018-03-03T02:13:43.325Z,41.25
2018-03-03T02:16:10.164Z,43.03
2018-03-03T02:18:38.592Z,40.95
2018-03-03T02:21:05.555Z,39.67
2018-03-03T02:23:33.112Z,37.80
2018-03-03T02:26:00.196Z,39.13
2018-03-03T02:28:26.931Z,42.62
2018-03-03T02:30:53.148Z,36.08
2018-03-03T02:33:20.036Z,37.47
2018-03-03T02:35:46.642Z,41.28
2018-03-03T02:38:13.977Z,38.60
2018-03-03T02:40:40.988Z,41.03
2018-03-03T02:43:07.982Z,40.33
2018-03-03T02:45:34.186Z,42.13
2018-03-03T02:48:00.806Z,38.65
2018-03-03T02:50:28.091Z,39.70
2018-03-03T02:52:55.131Z,38.40
2018-03-03T02:55:22.290Z,38.97
2018-03-03T02:57:48.557Z,41.97
2018-03-03T03:00:15.349Z,41.50
2018-03-03T03:02:42.600Z,43.00
2018-03-03T03:05:09.750Z,40.90
2018-03-03T03:07:36.026Z,39.10
2018-03-03T03:10:02.717Z,43.67
2018-03-03T03:12:31.265Z,37.83
2018-03-03T03:14:58.253Z,38.90
2018-03-03T03:17:25.050Z,44.10
2018-03-03T03:19:51.251Z,42.00
2018-03-03T03:22:17.488Z,40.17
2018-03-03T03:24:44.264Z,36.78
2018-03-03T03:27:12.259Z,43.22
2018-03-03T03:29:38.987Z,42.20
2018-03-03T03:32:06.170Z,35.60
2018-03-03T03:34:33.688Z,41.95
2018-03-03T03:37:00.636Z,38.90
2018-03-03T03:39:27.444Z,41.28
2018-03-03T03:41:54.266Z,41.85
2018-03-03T03:44:21.290Z,40.22
2018-03-03T03:46:48.973Z,43.63
2018-03-03T03:49:15.213Z,40.65
2018-03-03T03:51:41.411Z,41.37
2018-03-03T03:54:07.855Z,39.72
2018-03-03T03:56:34.254Z,43.85
2018-03-03T03:59:00.615Z,41.60
2018-03-03T04:01:27.103Z,40.83
2018-03-03T04:03:54.958Z,40.15
2018-03-03T04:06:21.920Z,44.95
2018-03-03T04:08:49.090Z,42.47
2018-03-03T04:11:15.912Z,41.42
2018-03-03T04:13:42.927Z,44.17
2018-03-03T04:16:09.751Z,41.50
2018-03-03T04:18:36.016Z,46.83
2018-03-03T04:21:03.426Z,41.90
2018-03-03T04:23:31.272Z,40.85
2018-03-03T04:25:58.649Z,37.15
2018-03-03T04:28:26.640Z,39.03
2018-03-03T04:30:53.642Z,41.28
2018-03-03T04:33:19.979Z,43.58
2018-03-03T04:35:46.941Z,42.17
2018-03-03T04:38:14.414Z,37.42
2018-03-03T04:40:41.532Z,39.58
2018-03-03T04:43:07.751Z,40.53
2018-03-03T04:45:34.468Z,38.80
2018-03-03T04:48:01.451Z,41.25
2018-03-03T04:50:28.406Z,41.67
2018-03-03T04:52:56.180Z,40.55
2018-03-03T04:55:23.174Z,43.65
2018-03-03T04:57:50.382Z,44.65
2018-03-03T05:00:22.788Z,39.70
2018-03-03T05:02:51.588Z,39.42
2018-03-03T05:05:20.690Z,41.15
2018-03-03T05:10:46.267Z,43.17
2018-03-03T05:13:20.364Z,41.33
2018-03-03T05:16:01.542Z,39.92
2018-03-03T05:18:30.752Z,35.80
2018-03-03T05:21:18.495Z,40.63
2018-03-03T05:23:50.661Z,36.50
2018-03-03T05:26:23.709Z,41.13
2018-03-03T05:29:04.847Z,47.58
2018-03-03T05:34:42.682Z,40.35
2018-03-03T05:37:12.615Z,46.70
2018-03-03T05:39:53.779Z,45.15
2018-03-03T05:42:26.114Z,44.58
2018-03-03T05:44:58.557Z,40.63
2018-03-03T05:47:40.750Z,47.90
2018-03-03T05:50:13.001Z,43.97
2018-03-03T05:52:54.707Z,45.10
2018-03-03T05:55:27.598Z,50.33
2018-03-03T05:58:14.771Z,46.83
2018-03-03T06:01:01.638Z,43.08
2018-03-03T06:03:34.092Z,39.85
2018-03-03T06:06:19.491Z,39.22
2018-03-03T06:08:47.326Z,41.67
2018-03-03T06:11:13.605Z,47.58
2018-03-03T06:13:39.958Z,41.90
2018-03-03T06:16:06.919Z,41.17
2018-03-03T06:18:33.291Z,43.45
2018-03-03T06:21:00.384Z,44.22
2018-03-03T06:23:26.874Z,39.70
2018-03-03T06:25:53.879Z,44.50
2018-03-03T06:28:20.092Z,44.35
2018-03-03T06:30:47.075Z,47.72
2018-03-03T06:33:13.398Z,42.15
2018-03-03T06:35:39.664Z,43.15
2018-03-03T06:38:06.091Z,44.60
2018-03-03T06:40:32.379Z,48.90
2018-03-03T06:42:58.827Z,47.13
2018-03-03T06:45:25.918Z,44.80
2018-03-03T06:47:52.139Z,44.60
2018-03-03T06:50:18.991Z,47.88
2018-03-03T06:52:45.613Z,46.20
2018-03-03T06:55:11.863Z,42.90
2018-03-03T06:57:38.050Z,42.80
2018-03-03T07:00:04.788Z,43.92
2018-03-03T07:02:31.036Z,45.90
2018-03-03T07:04:57.429Z,46.67
2018-03-03T07:07:23.684Z,45.95
2018-03-03T07:09:49.977Z,49.80
2018-03-03T07:12:17.667Z,45.45
2018-03-03T07:14:45.094Z,46.70
2018-03-03T07:17:11.951Z,45.85
2018-03-03T07:19:38.495Z,45.67
2018-03-03T07:22:05.494Z,44.08
2018-03-03T07:24:32.803Z,41.03
2018-03-03T07:27:00.194Z,41.45
2018-03-03T07:29:27.319Z,43.20
2018-03-03T07:31:53.543Z,47.10
2018-03-03T07:34:19.780Z,46.13
2018-03-03T07:36:46.010Z,45.72
2018-03-03T07:39:12.304Z,44.63
2018-03-03T07:41:39.049Z,43.63
2018-03-03T07:44:05.303Z,44.55
2018-03-03T07:46:31.837Z,46.05
2018-03-03T07:48:58.263Z,46.20
2018-03-03T07:51:24.529Z,44.90
2018-03-03T07:53:51.494Z,41.42
2018-03-03T07:56:17.892Z,42.62
2018-03-03T07:58:48.701Z,45.42
2018-03-03T08:01:15.365Z,44.33
2018-03-03T08:03:42.406Z,43.10
2018-03-03T08:06:08.733Z,45.40
2018-03-03T08:08:35.602Z,46.08
2018-03-03T08:11:02.776Z,43.53
2018-03-03T08:13:29.165Z,45.05
2018-03-03T08:15:55.394Z,45.28
2018-03-03T08:18:21.676Z,45.15
2018-03-03T08:20:47.984Z,43.33
2018-03-03T08:23:14.327Z,44.05
2018-03-03T08:25:40.595Z,45.60
2018-03-03T08:28:06.887Z,43.97
2018-03-03T08:30:33.084Z,43.83
2018-03-03T08:33:01.521Z,46.20
2018-03-03T08:35:28.527Z,47.85
2018-03-03T08:37:55.028Z,45.10
2018-03-03T08:40:21.740Z,46.37
2018-03-03T08:42:48.744Z,45.88
2018-03-03T08:45:15.634Z,44.13
2018-03-03T08:47:41.899Z,44.25
2018-03-03T08:50:08.966Z,41.85
2018-03-03T08:52:35.759Z,44.97
2018-03-03T08:55:02.012Z,46.17
2018-03-03T08:57:29.002Z,44.95
2018-03-03T08:59:55.904Z,44.47
2018-03-03T09:02:22.987Z,44.75
2018-03-03T09:04:50.001Z,46.80
2018-03-03T09:07:17.265Z,46.78
2018-03-03T09:09:44.298Z,45.67
2018-03-03T09:12:11.244Z,44.67
2018-03-03T09:14:38.502Z,44.70
2018-03-03T09:17:05.988Z,44.08
2018-03-03T09:19:33.177Z,44.55
2018-03-03T09:21:59.388Z,44.20
2018-03-03T09:24:25.920Z,44.50
2018-03-03T09:26:54.301Z,46.15
2018-03-03T09:29:21.450Z,44.05
2018-03-03T09:31:48.568Z,44.08
2018-03-03T09:34:14.810Z,44.38
2018-03-03T09:46:26.248Z,44.63
2018-03-03T09:48:53.291Z,46.63
2018-03-03T09:51:20.190Z,45.65
2018-03-03T09:53:48.231Z,43.00
2018-03-03T09:56:14.846Z,46.30
2018-03-03T09:58:41.909Z,42.20
2018-03-03T10:01:08.800Z,46.33
2018-03-03T10:03:35.763Z,44.63
2018-03-03T10:06:03.120Z,42.50
2018-03-03T10:08:30.177Z,42.22
2018-03-03T10:10:56.405Z,43.28
2018-03-03T10:13:23.250Z,44.05
2018-03-03T10:15:50.074Z,42.58
2018-03-03T10:18:17.349Z,43.40
2018-03-03T10:20:43.594Z,45.20
2018-03-03T10:23:10.929Z,45.10
2018-03-03T10:25:37.828Z,44.95
2018-03-03T10:28:05.150Z,46.08
2018-03-03T10:30:31.637Z,46.15
2018-03-03T10:32:59.219Z,48.90
2018-03-03T10:35:26.418Z,41.88
2018-03-03T10:37:52.674Z,45.45
2018-03-03T10:40:19.646Z,49.13
2018-03-03T10:42:45.838Z,50.80
2018-03-03T10:45:12.821Z,47.05
2018-03-03T10:47:39.036Z,46.60
2018-03-03T10:50:06.122Z,44.65
2018-03-03T10:52:32.676Z,46.60
2018-03-03T10:54:59.734Z,45.47
2018-03-03T10:57:26.761Z,48.55
2018-03-03T10:59:53.000Z,49.75
2018-03-03T11:02:19.213Z,49.97
2018-03-03T11:04:45.947Z,49.05
2018-03-03T11:07:12.173Z,50.17
2018-03-03T11:09:39.386Z,49.90
2018-03-03T11:12:05.645Z,51.35
2018-03-03T11:14:32.568Z,48.87
2018-03-03T11:17:00.507Z,47.25
2018-03-03T11:19:28.001Z,46.72
2018-03-03T11:21:54.202Z,48.63
2018-03-03T11:24:20.406Z,49.10
2018-03-03T11:26:47.886Z,46.50
2018-03-03T11:29:14.693Z,46.63
2018-03-03T11:31:41.808Z,47.47
2018-03-03T11:34:09.619Z,46.88
2018-03-03T11:36:37.346Z,46.78
2018-03-03T11:39:03.617Z,45.92
2018-03-03T11:41:30.214Z,51.75
2018-03-03T11:43:57.008Z,46.72
2018-03-03T11:46:23.864Z,46.83
2018-03-03T11:48:50.114Z,49.22
2018-03-03T11:51:17.327Z,46.17
2018-03-03T11:53:44.206Z,41.00
2018-03-03T11:56:10.664Z,46.90
2018-03-03T11:58:37.171Z,44.33
2018-03-03T12:01:03.950Z,45.63
2018-03-03T12:03:30.184Z,44.22
2018-03-03T12:05:56.834Z,45.00
2018-03-03T12:08:24.493Z,46.97
2018-03-03T12:10:51.769Z,44.05
2018-03-03T12:13:18.050Z,43.65
2018-03-03T12:15:44.443Z,41.42
2018-03-03T12:18:10.681Z,43.50
2018-03-03T12:20:36.998Z,45.10
2018-03-03T12:23:05.292Z,44.40
2018-03-03T12:25:32.220Z,43.95
2018-03-03T12:27:59.263Z,48.63
2018-03-03T12:30:26.069Z,45.50
2018-03-03T12:32:53.298Z,43.90
2018-03-03T12:35:19.568Z,44.47
2018-03-03T12:37:46.448Z,42.17
2018-03-03T12:40:13.165Z,45.35
2018-03-03T12:42:40.183Z,42.88
2018-03-03T12:45:06.516Z,42.70
2018-03-03T12:47:33.958Z,43.45
2018-03-03T12:50:00.935Z,42.05
2018-03-03T12:52:27.776Z,44.75
2018-03-03T12:54:54.543Z,44.58
2018-03-03T12:57:21.733Z,46.67
2018-03-03T12:59:47.937Z,45.47
2018-03-03T13:02:14.167Z,43.55
2018-03-03T13:04:40.351Z,44.45
2018-03-03T13:07:06.558Z,44.58
2018-03-03T13:09:34.102Z,43.92
2018-03-03T13:12:01.361Z,44.22
2018-03-03T13:14:28.332Z,43.92
2018-03-03T13:16:55.192Z,46.58
2018-03-03T13:19:22.589Z,46.17
2018-03-03T13:21:51.428Z,45.55
2018-03-03T13:24:18.625Z,47.40
2018-03-03T13:26:44.944Z,44.40
2018-03-03T13:29:11.725Z,46.60
2018-03-03T13:31:38.223Z,43.80
2018-03-03T13:34:04.584Z,45.58
2018-03-03T13:36:30.863Z,44.55
2018-03-03T13:38:57.403Z,46.08
2018-03-03T13:41:24.861Z,46.08
2018-03-03T13:43:51.691Z,43.10
2018-03-03T13:46:18.725Z,45.00
2018-03-03T13:48:45.914Z,46.03
2018-03-03T13:51:12.290Z,45.33
2018-03-03T13:53:39.499Z,48.65
2018-03-03T13:56:05.717Z,45.58
2018-03-03T13:58:32.018Z,44.90
2018-03-03T14:00:59.074Z,46.88
2018-03-03T14:03:26.613Z,42.08
2018-03-03T14:05:53.537Z,46.30
2018-03-03T14:08:21.319Z,47.35
2018-03-03T14:10:48.042Z,44.75
2018-03-03T14:13:15.695Z,47.88
2018-03-03T14:15:44.802Z,46.30
2018-03-03T14:18:11.617Z,44.85
2018-03-03T14:20:39.241Z,46.00
2018-03-03T14:23:05.899Z,46.17
2018-03-03T14:25:34.030Z,43.38
2018-03-03T14:28:00.250Z,45.05
2018-03-03T14:30:27.705Z,46.75
2018-03-03T14:32:55.601Z,45.83
2018-03-03T14:35:23.471Z,47.90
2018-03-03T14:37:50.828Z,44.72
2018-03-03T14:40:19.827Z,44.00
2018-03-03T14:42:46.088Z,45.90
2018-03-03T14:45:14.328Z,44.13
2018-03-03T14:47:41.242Z,42.90
2018-03-03T14:50:08.969Z,42.47
2018-03-03T14:52:35.864Z,43.80
2018-03-03T14:55:03.726Z,45.55
2018-03-03T14:57:31.015Z,43.47
2018-03-03T14:59:57.271Z,45.53
2018-03-03T15:02:25.982Z,42.03
2018-03-03T15:04:54.060Z,42.90
2018-03-03T15:07:20.982Z,43.40
2018-03-03T15:09:47.670Z,42.92
2018-03-03T15:14:47.414Z,45.08
2018-03-03T15:17:13.632Z,45.25
2018-03-03T15:19:39.885Z,43.25
2018-03-03T15:22:07.018Z,42.40
2018-03-03T15:24:35.192Z,41.90
2018-03-03T15:27:02.761Z,46.63
2018-03-03T15:29:29.687Z,43.72
2018-03-03T15:31:55.952Z,44.28
2018-03-03T15:34:22.913Z,44.72
2018-03-03T15:36:49.614Z,43.08
2018-03-03T15:39:16.695Z,44.38
2018-03-03T15:41:43.361Z,43.85
2018-03-03T15:44:10.428Z,44.15
2018-03-03T15:46:43.175Z,45.12
2018-03-03T15:49:09.506Z,46.85
2018-03-03T15:51:35.727Z,43.13
2018-03-03T15:54:03.016Z,44.80
2018-03-03T15:56:29.998Z,45.83
2018-03-03T15:58:57.371Z,41.92
2018-03-03T16:01:25.462Z,42.45
2018-03-03T16:03:51.703Z,49.83
2018-03-03T16:06:18.944Z,44.47
2018-03-03T16:08:45.161Z,49.55
2018-03-03T16:11:11.391Z,47.83
2018-03-03T16:13:38.322Z,46.92
2018-03-03T16:16:05.513Z,47.83
2018-03-03T16:18:31.734Z,47.28
2018-03-03T16:20:58.111Z,48.13
2018-03-03T17:24:05.425Z,47.35
2018-03-03T17:26:32.620Z,41.95
2018-03-03T17:28:58.934Z,44.17
2018-03-03T17:31:25.715Z,41.20
2018-03-03T17:33:53.386Z,43.13
2018-03-03T17:36:20.551Z,49.85
2018-03-03T17:38:46.783Z,45.30
2018-03-03T17:41:13.012Z,46.47
2018-03-03T17:43:39.465Z,46.53
2018-03-03T17:46:05.674Z,43.30
2018-03-03T17:48:32.623Z,51.22
2018-03-03T17:50:58.885Z,51.58
2018-03-03T17:53:25.990Z,55.63
2018-03-03T17:55:52.788Z,49.67
2018-03-03T17:58:19.282Z,54.50
2018-03-03T18:00:45.513Z,51.10
2018-03-03T18:03:11.838Z,53.55
2018-03-03T18:05:38.657Z,55.58
2018-03-03T18:08:05.163Z,53.80
2018-03-03T18:10:31.865Z,46.05
2018-03-03T18:12:58.496Z,45.10
2018-03-03T18:15:25.532Z,51.13
2018-03-03T18:17:53.483Z,49.25
2018-03-03T18:20:20.001Z,51.70
2018-03-03T18:22:48.182Z,47.33
2018-03-03T18:25:16.358Z,53.10
2018-03-03T18:27:42.845Z,50.63
2018-03-03T18:30:09.091Z,57.65
2018-03-03T18:32:35.320Z,51.20
2018-03-03T18:35:01.819Z,50.05
2018-03-03T18:37:28.174Z,47.47
2018-03-03T18:39:54.767Z,49.30
2018-03-03T18:42:20.984Z,48.90
2018-03-03T18:44:47.776Z,46.75
2018-03-03T18:47:14.831Z,47.75
2018-03-03T18:49:41.392Z,51.15
2018-03-03T18:52:08.952Z,48.20
2018-03-03T18:54:36.345Z,48.63
2018-03-03T18:57:04.102Z,48.92
2018-03-03T18:59:30.350Z,49.42
2018-03-03T19:01:56.620Z,51.75
2018-03-03T19:04:23.564Z,53.30
2018-03-03T19:06:50.592Z,49.35
2018-03-03T19:09:18.247Z,47.67
2018-03-03T19:11:44.469Z,51.75
2018-03-03T19:14:10.695Z,49.75
2018-03-03T19:16:37.839Z,47.45
2018-03-03T19:19:04.521Z,47.72
2018-03-03T19:21:31.730Z,48.35
2018-03-03T19:23:58.762Z,47.85
2018-03-03T19:26:25.419Z,50.75
2018-03-03T19:28:52.579Z,50.97
2018-03-03T19:31:19.787Z,47.97
2018-03-03T19:33:46.188Z,47.33
2018-03-03T19:36:13.576Z,49.65
2018-03-03T19:38:40.844Z,46.30
2018-03-03T19:41:07.045Z,52.00
2018-03-03T19:43:33.266Z,52.65
2018-03-03T19:45:59.691Z,47.20
2018-03-03T19:48:25.923Z,49.58
2018-03-03T19:50:52.689Z,49.08
2018-03-03T19:53:19.978Z,51.30
2018-03-03T19:55:46.754Z,51.90
2018-03-03T19:58:13.591Z,47.90
2018-03-03T20:00:40.751Z,55.38
2018-03-03T20:03:07.489Z,48.70
2018-03-03T20:05:34.168Z,52.67
2018-03-03T20:08:00.367Z,53.67
2018-03-03T20:10:26.575Z,46.88
2018-03-03T20:12:53.072Z,50.33
2018-03-03T20:15:19.596Z,55.88
2018-03-03T20:17:47.257Z,55.75
2018-03-03T20:20:14.042Z,54.35
2018-03-03T20:22:40.952Z,52.67
2018-03-03T20:25:07.487Z,51.65
2018-03-03T20:27:34.682Z,48.70
2018-03-03T20:30:03.581Z,50.17
2018-03-03T20:32:31.457Z,61.55
2018-03-03T20:34:58.474Z,57.47
2018-03-03T20:37:27.158Z,57.72
2018-03-03T20:39:54.115Z,52.50
2018-03-03T20:42:20.333Z,54.47
2018-03-03T20:44:47.386Z,63.95
2018-03-03T20:47:14.825Z,61.42
2018-03-03T20:49:42.744Z,56.08
2018-03-03T20:52:09.455Z,65.85
2018-03-03T20:54:35.693Z,61.95
2018-03-03T20:57:01.928Z,68.05
2018-03-03T20:59:28.684Z,61.47
2018-03-03T21:01:54.927Z,58.70
2018-03-03T21:04:22.721Z,56.92
2018-03-03T21:06:50.271Z,54.85
2018-03-03T21:09:19.085Z,55.55
2018-03-03T21:14:53.531Z,58.78
2018-03-03T21:17:21.793Z,58.22
2018-03-03T21:19:49.469Z,62.62
2018-03-03T21:22:15.729Z,55.33
2018-03-03T21:24:42.509Z,56.70
2018-03-03T21:27:09.681Z,59.08
2018-03-03T21:29:36.043Z,57.85
2018-03-03T21:32:02.326Z,53.22
2018-03-03T21:34:29.362Z,59.17
2018-03-03T21:36:55.579Z,58.63
2018-03-03T21:39:21.873Z,60.22
2018-03-03T21:41:48.085Z,61.83
2018-03-03T21:44:14.411Z,56.78
2018-03-03T21:46:41.531Z,58.00
2018-03-03T21:49:10.064Z,59.47
2018-03-03T21:51:37.193Z,57.20
2018-03-03T21:54:04.423Z,58.08
2018-03-03T21:56:30.885Z,55.97
2018-03-03T21:58:57.246Z,57.72
2018-03-03T22:01:23.807Z,56.55
2018-03-03T22:03:50.790Z,57.10
2018-03-03T22:06:17.200Z,58.00
2018-03-03T22:08:44.832Z,57.95
2018-03-03T22:11:12.445Z,58.20
2018-03-03T22:13:39.923Z,55.40
2018-03-03T22:16:06.975Z,58.33
2018-03-03T22:18:33.459Z,57.25
2018-03-03T22:21:00.522Z,57.62
2018-03-03T22:23:26.749Z,53.67
2018-03-03T22:25:53.800Z,56.60
2018-03-03T22:28:20.032Z,58.28
2018-03-03T22:30:48.969Z,52.58
2018-03-03T22:33:18.652Z,59.30
2018-03-03T22:35:47.086Z,59.00
2018-03-03T22:38:16.949Z,57.80
2018-03-03T22:40:44.257Z,57.08
2018-03-03T22:43:12.413Z,57.05
2018-03-03T22:51:26.993Z,54.22
2018-03-03T22:53:54.238Z,50.50
2018-03-03T22:56:22.457Z,52.58
2018-03-03T22:58:48.954Z,52.38
2018-03-03T23:01:15.832Z,48.70
2018-03-03T23:03:42.784Z,57.00
2018-03-03T23:06:10.215Z,54.63
2018-03-03T23:08:37.152Z,53.03
2018-03-03T23:11:04.473Z,55.03
2018-03-03T23:13:31.667Z,49.85
2018-03-03T23:15:58.912Z,52.00
2018-03-03T23:18:25.994Z,52.35
2018-03-03T23:20:52.246Z,53.42
2018-03-03T23:23:18.657Z,54.53
2018-03-03T23:25:45.577Z,57.85
2018-03-03T23:28:12.581Z,52.00
2018-03-03T23:30:38.792Z,55.12
2018-03-03T23:33:05.328Z,54.17
2018-03-03T23:35:32.442Z,52.62
2018-03-03T23:37:58.838Z,52.45
2018-03-03T23:40:25.075Z,50.47
2018-03-03T23:42:51.286Z,49.63
2018-03-03T23:45:18.066Z,51.53
2018-03-03T23:47:44.458Z,52.62
2018-03-03T23:50:10.842Z,51.22
2018-03-03T23:52:37.121Z,50.50
2018-03-03T23:55:03.396Z,54.60
